sensor_id;sensor_type;location;lat;lon;timestamp;pressure;altitude;pressure_sealevel;temperature;humidity
52249;BME280;38541;48.130;8.378;2023-03-26T00:01:15;92267.28;;;5.48;77.58
52249;BME280;38541;48.130;8.378;2023-03-26T00:03:42;92270.22;;;5.51;77.78
52249;BME280;38541;48.130;8.378;2023-03-26T00:06:12;92265.78;;;5.52;78.03
52249;BME280;38541;48.130;8.378;2023-03-26T00:08:40;92274.81;;;5.44;77.42
52249;BME280;38541;48.130;8.378;2023-03-26T00:11:09;92275.16;;;5.53;77.59
52249;BME280;38541;48.130;8.378;2023-03-26T00:13:36;92272.38;;;5.60;77.65
52249;BME280;38541;48.130;8.378;2023-03-26T00:16:03;92267.72;;;5.62;77.71
52249;BME280;38541;48.130;8.378;2023-03-26T00:18:30;92272.22;;;5.66;77.55
52249;BME280;38541;48.130;8.378;2023-03-26T00:20:57;92265.66;;;5.64;77.83
52249;BME280;38541;48.130;8.378;2023-03-26T00:23:25;92273.47;;;5.64;77.84
52249;BME280;38541;48.130;8.378;2023-03-26T00:25:53;92276.81;;;5.59;77.12
52249;BME280;38541;48.130;8.378;2023-03-26T00:28:20;92270.81;;;5.59;78.01
52249;BME280;38541;48.130;8.378;2023-03-26T00:30:59;92267.03;;;5.49;78.39
52249;BME280;38541;48.130;8.378;2023-03-26T00:33:27;92275.13;;;5.48;78.75
52249;BME280;38541;48.130;8.378;2023-03-26T00:35:55;92271.47;;;5.49;78.88
52249;BME280;38541;48.130;8.378;2023-03-26T00:38:25;92274.84;;;5.49;78.66
52249;BME280;38541;48.130;8.378;2023-03-26T00:40:52;92268.31;;;5.47;78.53
52249;BME280;38541;48.130;8.378;2023-03-26T00:43:21;92260.03;;;5.50;78.42
52249;BME280;38541;48.130;8.378;2023-03-26T00:45:50;92261.06;;;5.49;78.26
52249;BME280;38541;48.130;8.378;2023-03-26T00:48:17;92264.63;;;5.42;77.88
52249;BME280;38541;48.130;8.378;2023-03-26T00:50:45;92262.97;;;5.36;77.90
52249;BME280;38541;48.130;8.378;2023-03-26T00:53:13;92260.91;;;5.38;77.02
52249;BME280;38541;48.130;8.378;2023-03-26T00:55:40;92259.22;;;5.27;76.94
52249;BME280;38541;48.130;8.378;2023-03-26T00:58:07;92254.25;;;5.25;76.45
52249;BME280;38541;48.130;8.378;2023-03-26T01:00:41;92250.31;;;5.23;77.18
52249;BME280;38541;48.130;8.378;2023-03-26T01:03:11;92255.75;;;5.21;77.83
52249;BME280;38541;48.130;8.378;2023-03-26T01:06:01;92252.63;;;5.19;77.41
52249;BME280;38541;48.130;8.378;2023-03-26T01:08:41;92236.69;;;5.16;77.76
52249;BME280;38541;48.130;8.378;2023-03-26T01:13:50;92248.84;;;5.10;77.40
52249;BME280;38541;48.130;8.378;2023-03-26T01:16:24;92232.94;;;5.06;77.46
52249;BME280;38541;48.130;8.378;2023-03-26T01:18:52;92237.81;;;5.03;77.31
52249;BME280;38541;48.130;8.378;2023-03-26T01:21:23;92242.31;;;5.07;77.85
52249;BME280;38541;48.130;8.378;2023-03-26T01:24:12;92236.06;;;5.08;78.61
52249;BME280;38541;48.130;8.378;2023-03-26T01:29:31;92217.22;;;5.01;79.13
52249;BME280;38541;48.130;8.378;2023-03-26T01:32:34;92222.19;;;5.03;79.45
52249;BME280;38541;48.130;8.378;2023-03-26T01:35:10;92217.78;;;5.03;78.88
52249;BME280;38541;48.130;8.378;2023-03-26T01:40:34;92207.22;;;4.93;78.49
52249;BME280;38541;48.130;8.378;2023-03-26T01:45:40;92182.66;;;4.83;78.48
52249;BME280;38541;48.130;8.378;2023-03-26T01:48:07;92175.06;;;4.82;78.56
52249;BME280;38541;48.130;8.378;2023-03-26T01:50:34;92170.63;;;4.82;78.42
52249;BME280;38541;48.130;8.378;2023-03-26T01:53:00;92158.06;;;4.74;78.57
52249;BME280;38541;48.130;8.378;2023-03-26T01:55:53;92156.00;;;4.76;79.04
52249;BME280;38541;48.130;8.378;2023-03-26T01:58:34;92146.25;;;4.66;78.79
52249;BME280;38541;48.130;8.378;2023-03-26T02:07:32;92125.31;;;4.56;78.75
52249;BME280;38541;48.130;8.378;2023-03-26T02:10:31;92106.84;;;4.57;79.94
52249;BME280;38541;48.130;8.378;2023-03-26T02:12:59;92115.81;;;4.67;80.78
52249;BME280;38541;48.130;8.378;2023-03-26T02:15:26;92110.31;;;4.63;80.68
52249;BME280;38541;48.130;8.378;2023-03-26T02:17:52;92110.06;;;4.65;80.44
52249;BME280;38541;48.130;8.378;2023-03-26T02:20:20;92104.00;;;4.59;80.23
52249;BME280;38541;48.130;8.378;2023-03-26T02:22:46;92102.13;;;4.54;80.61
52249;BME280;38541;48.130;8.378;2023-03-26T02:25:18;92091.19;;;4.52;80.51
52249;BME280;38541;48.130;8.378;2023-03-26T02:27:47;92085.56;;;4.61;80.35
52249;BME280;38541;48.130;8.378;2023-03-26T02:30:19;92079.41;;;4.67;79.96
52249;BME280;38541;48.130;8.378;2023-03-26T02:32:49;92073.41;;;4.66;80.29
52249;BME280;38541;48.130;8.378;2023-03-26T02:35:19;92070.56;;;4.68;79.96
52249;BME280;38541;48.130;8.378;2023-03-26T02:37:49;92066.63;;;4.65;79.75
52249;BME280;38541;48.130;8.378;2023-03-26T02:40:19;92060.66;;;4.65;79.71
52249;BME280;38541;48.130;8.378;2023-03-26T02:42:48;92061.41;;;4.65;79.71
52249;BME280;38541;48.130;8.378;2023-03-26T02:45:16;92057.28;;;4.69;79.88
52249;BME280;38541;48.130;8.378;2023-03-26T02:48:14;92062.00;;;4.72;79.92
52249;BME280;38541;48.130;8.378;2023-03-26T02:50:47;92057.91;;;4.77;80.25
52249;BME280;38541;48.130;8.378;2023-03-26T02:53:39;92060.69;;;4.70;79.01
52249;BME280;38541;48.130;8.378;2023-03-26T02:56:24;92053.06;;;4.63;78.50
52249;BME280;38541;48.130;8.378;2023-03-26T02:59:09;92049.75;;;4.68;79.08
52249;BME280;38541;48.130;8.378;2023-03-26T03:01:38;92058.59;;;4.67;78.73
52249;BME280;38541;48.130;8.378;2023-03-26T03:04:10;92057.25;;;4.64;78.54
52249;BME280;38541;48.130;8.378;2023-03-26T03:06:38;92042.13;;;4.61;78.59
52249;BME280;38541;48.130;8.378;2023-03-26T03:09:06;92045.50;;;4.62;79.12
52249;BME280;38541;48.130;8.378;2023-03-26T03:11:37;92037.16;;;4.60;78.79
52249;BME280;38541;48.130;8.378;2023-03-26T03:14:04;92028.81;;;4.57;78.51
52249;BME280;38541;48.130;8.378;2023-03-26T03:16:32;92031.94;;;4.60;78.86
52249;BME280;38541;48.130;8.378;2023-03-26T03:19:04;92010.38;;;4.59;78.99
52249;BME280;38541;48.130;8.378;2023-03-26T03:21:40;92008.00;;;4.57;78.93
52249;BME280;38541;48.130;8.378;2023-03-26T03:24:09;92002.78;;;4.57;79.82
52249;BME280;38541;48.130;8.378;2023-03-26T03:26:41;92002.06;;;4.62;80.18
52249;BME280;38541;48.130;8.378;2023-03-26T03:29:19;92002.38;;;4.66;79.67
52249;BME280;38541;48.130;8.378;2023-03-26T03:31:46;92006.56;;;4.67;79.93
52249;BME280;38541;48.130;8.378;2023-03-26T03:34:31;91999.78;;;4.66;79.48
52249;BME280;38541;48.130;8.378;2023-03-26T03:36:58;91994.81;;;4.64;79.16
52249;BME280;38541;48.130;8.378;2023-03-26T03:39:33;91984.16;;;4.66;80.06
52249;BME280;38541;48.130;8.378;2023-03-26T03:42:00;91968.00;;;4.64;79.71
52249;BME280;38541;48.130;8.378;2023-03-26T03:44:27;91973.50;;;4.67;79.97
52249;BME280;38541;48.130;8.378;2023-03-26T03:46:55;91972.25;;;4.70;80.18
52249;BME280;38541;48.130;8.378;2023-03-26T03:49:22;91969.63;;;4.70;80.26
52249;BME280;38541;48.130;8.378;2023-03-26T03:51:49;91962.38;;;4.72;80.72
52249;BME280;38541;48.130;8.378;2023-03-26T03:54:31;91962.88;;;4.69;80.28
52249;BME280;38541;48.130;8.378;2023-03-26T03:57:24;91967.25;;;4.68;80.21
52249;BME280;38541;48.130;8.378;2023-03-26T03:59:58;91957.59;;;4.64;80.84
52249;BME280;38541;48.130;8.378;2023-03-26T04:02:29;91943.63;;;4.70;80.64
52249;BME280;38541;48.130;8.378;2023-03-26T04:05:04;91942.31;;;4.72;80.37
52249;BME280;38541;48.130;8.378;2023-03-26T04:07:31;91955.09;;;4.74;80.90
52249;BME280;38541;48.130;8.378;2023-03-26T04:10:05;91942.09;;;4.74;80.71
52249;BME280;38541;48.130;8.378;2023-03-26T04:12:55;91951.69;;;4.74;80.84
52249;BME280;38541;48.130;8.378;2023-03-26T04:15:46;91935.84;;;4.75;81.04
52249;BME280;38541;48.130;8.378;2023-03-26T04:18:13;91939.00;;;4.77;80.83
52249;BME280;38541;48.130;8.378;2023-03-26T04:20:44;91940.03;;;4.76;80.68
52249;BME280;38541;48.130;8.378;2023-03-26T04:23:17;91933.28;;;4.80;80.35
52249;BME280;38541;48.130;8.378;2023-03-26T04:25:51;91932.81;;;4.83;80.42
52249;BME280;38541;48.130;8.378;2023-03-26T04:28:54;91935.97;;;4.85;79.97
52249;BME280;38541;48.130;8.378;2023-03-26T04:31:26;91939.63;;;4.90;79.90
52249;BME280;38541;48.130;8.378;2023-03-26T04:34:06;91934.97;;;4.92;80.24
52249;BME280;38541;48.130;8.378;2023-03-26T04:36:40;91934.47;;;4.95;80.20
52249;BME280;38541;48.130;8.378;2023-03-26T04:39:09;91925.13;;;4.99;79.93
52249;BME280;38541;48.130;8.378;2023-03-26T04:42:02;91910.31;;;4.99;79.82
52249;BME280;38541;48.130;8.378;2023-03-26T04:44:39;91905.41;;;5.03;79.75
52249;BME280;38541;48.130;8.378;2023-03-26T04:47:10;91914.22;;;5.02;79.92
52249;BME280;38541;48.130;8.378;2023-03-26T04:49:44;91901.75;;;5.04;80.35
52249;BME280;38541;48.130;8.378;2023-03-26T04:52:13;91877.78;;;5.02;79.80
52249;BME280;38541;48.130;8.378;2023-03-26T04:55:44;91876.97;;;4.96;80.28
52249;BME280;38541;48.130;8.378;2023-03-26T04:58:22;91865.53;;;4.97;80.08
52249;BME280;38541;48.130;8.378;2023-03-26T05:00:58;91856.19;;;5.02;79.99
52249;BME280;38541;48.130;8.378;2023-03-26T05:03:41;91848.91;;;5.04;80.07
52249;BME280;38541;48.130;8.378;2023-03-26T05:06:12;91855.97;;;5.08;79.50
52249;BME280;38541;48.130;8.378;2023-03-26T05:08:39;91840.88;;;5.10;79.69
52249;BME280;38541;48.130;8.378;2023-03-26T05:11:11;91837.25;;;5.11;80.05
52249;BME280;38541;48.130;8.378;2023-03-26T05:13:37;91839.34;;;5.14;79.94
52249;BME280;38541;48.130;8.378;2023-03-26T05:16:09;91830.25;;;5.17;79.78
52249;BME280;38541;48.130;8.378;2023-03-26T05:18:39;91822.44;;;5.17;79.62
52249;BME280;38541;48.130;8.378;2023-03-26T05:21:07;91827.88;;;5.16;79.62
52249;BME280;38541;48.130;8.378;2023-03-26T05:23:34;91822.44;;;5.17;79.36
52249;BME280;38541;48.130;8.378;2023-03-26T05:26:09;91814.34;;;5.19;79.39
52249;BME280;38541;48.130;8.378;2023-03-26T05:28:36;91812.28;;;5.21;79.52
52249;BME280;38541;48.130;8.378;2023-03-26T05:31:38;91805.03;;;5.23;79.44
52249;BME280;38541;48.130;8.378;2023-03-26T05:34:04;91811.81;;;5.24;79.67
52249;BME280;38541;48.130;8.378;2023-03-26T05:36:32;91809.19;;;5.24;80.48
52249;BME280;38541;48.130;8.378;2023-03-26T05:39:18;91806.09;;;5.27;80.07
52249;BME280;38541;48.130;8.378;2023-03-26T05:42:10;91809.47;;;5.27;79.95
52249;BME280;38541;48.130;8.378;2023-03-26T05:44:57;91799.56;;;5.29;80.10
52249;BME280;38541;48.130;8.378;2023-03-26T05:47:27;91796.97;;;5.29;80.25
52249;BME280;38541;48.130;8.378;2023-03-26T05:49:54;91793.88;;;5.33;80.33
52249;BME280;38541;48.130;8.378;2023-03-26T05:52:21;91792.06;;;5.33;80.92
52249;BME280;38541;48.130;8.378;2023-03-26T05:55:26;91791.81;;;5.35;80.62
52249;BME280;38541;48.130;8.378;2023-03-26T05:58:12;91784.75;;;5.35;80.35
52249;BME280;38541;48.130;8.378;2023-03-26T06:01:00;91786.06;;;5.33;80.83
52249;BME280;38541;48.130;8.378;2023-03-26T06:03:51;91764.47;;;5.37;80.66
52249;BME280;38541;48.130;8.378;2023-03-26T06:06:19;91762.38;;;5.39;80.70
52249;BME280;38541;48.130;8.378;2023-03-26T06:08:54;91744.44;;;5.43;80.46
52249;BME280;38541;48.130;8.378;2023-03-26T06:11:31;91725.44;;;5.42;80.77
52249;BME280;38541;48.130;8.378;2023-03-26T06:13:59;91737.41;;;5.43;80.61
52249;BME280;38541;48.130;8.378;2023-03-26T06:16:26;91725.16;;;5.44;80.58
52249;BME280;38541;48.130;8.378;2023-03-26T06:19:25;91726.47;;;5.47;80.56
52249;BME280;38541;48.130;8.378;2023-03-26T06:21:59;91718.13;;;5.45;80.93
52249;BME280;38541;48.130;8.378;2023-03-26T06:24:35;91724.38;;;5.43;81.01
52249;BME280;38541;48.130;8.378;2023-03-26T06:27:34;91715.53;;;5.45;80.91
52249;BME280;38541;48.130;8.378;2023-03-26T06:30:20;91712.94;;;5.50;80.96
52249;BME280;38541;48.130;8.378;2023-03-26T06:33:13;91703.03;;;5.52;81.12
52249;BME280;38541;48.130;8.378;2023-03-26T06:35:45;91699.41;;;5.53;81.04
52249;BME280;38541;48.130;8.378;2023-03-26T06:38:13;91698.09;;;5.50;81.01
52249;BME280;38541;48.130;8.378;2023-03-26T06:40:40;91690.78;;;5.47;81.17
52249;BME280;38541;48.130;8.378;2023-03-26T06:43:25;91688.97;;;5.53;81.24
52249;BME280;38541;48.130;8.378;2023-03-26T06:45:54;91682.47;;;5.55;81.25
52249;BME280;38541;48.130;8.378;2023-03-26T06:48:36;91687.69;;;5.55;81.47
52249;BME280;38541;48.130;8.378;2023-03-26T06:51:21;91674.16;;;5.59;81.33
52249;BME280;38541;48.130;8.378;2023-03-26T06:54:06;91666.09;;;5.60;81.73
52249;BME280;38541;48.130;8.378;2023-03-26T06:56:55;91670.75;;;5.58;81.42
52249;BME280;38541;48.130;8.378;2023-03-26T06:59:54;91660.88;;;5.65;81.41
52249;BME280;38541;48.130;8.378;2023-03-26T07:02:39;91660.88;;;5.70;81.57
52249;BME280;38541;48.130;8.378;2023-03-26T07:05:23;91649.41;;;5.71;81.70
52249;BME280;38541;48.130;8.378;2023-03-26T07:08:09;91660.88;;;5.76;81.48
52249;BME280;38541;48.130;8.378;2023-03-26T07:10:54;91650.44;;;5.76;81.70
52249;BME280;38541;48.130;8.378;2023-03-26T07:13:41;91648.88;;;5.75;81.88
52249;BME280;38541;48.130;8.378;2023-03-26T07:16:27;91644.19;;;5.71;81.84
52249;BME280;38541;48.130;8.378;2023-03-26T07:19:15;91642.13;;;5.74;81.82
52249;BME280;38541;48.130;8.378;2023-03-26T07:21:43;91644.19;;;5.77;81.93
52249;BME280;38541;48.130;8.378;2023-03-26T07:24:35;91653.84;;;5.81;82.26
52249;BME280;38541;48.130;8.378;2023-03-26T07:33:37;91630.94;;;6.04;81.61
52249;BME280;38541;48.130;8.378;2023-03-26T07:39:36;91617.38;;;6.02;81.10
52249;BME280;38541;48.130;8.378;2023-03-26T07:45:36;91608.78;;;6.07;81.32
52249;BME280;38541;48.130;8.378;2023-03-26T07:48:25;91594.72;;;6.08;81.54
52249;BME280;38541;48.130;8.378;2023-03-26T07:51:24;91594.19;;;6.06;81.12
52249;BME280;38541;48.130;8.378;2023-03-26T07:53:59;91585.31;;;6.07;81.61
52249;BME280;38541;48.130;8.378;2023-03-26T07:57:07;91580.59;;;6.14;81.54
52249;BME280;38541;48.130;8.378;2023-03-26T07:59:56;91573.84;;;6.08;80.71
52249;BME280;38541;48.130;8.378;2023-03-26T08:05:47;91580.63;;;6.19;80.90
52249;BME280;38541;48.130;8.378;2023-03-26T08:08:52;91578.78;;;6.30;80.64
52249;BME280;38541;48.130;8.378;2023-03-26T08:11:56;91579.25;;;6.42;80.69
52249;BME280;38541;48.130;8.378;2023-03-26T08:22:33;91601.97;;;6.26;81.09
52249;BME280;38541;48.130;8.378;2023-03-26T08:25:25;91623.38;;;6.08;80.13
52249;BME280;38541;48.130;8.378;2023-03-26T08:28:15;91623.34;;;5.92;80.84
52249;BME280;38541;48.130;8.378;2023-03-26T08:30:44;91646.81;;;5.87;80.89
52249;BME280;38541;48.130;8.378;2023-03-26T08:33:13;91664.00;;;5.72;79.68
52249;BME280;38541;48.130;8.378;2023-03-26T08:35:42;91679.88;;;5.55;79.11
52249;BME280;38541;48.130;8.378;2023-03-26T08:38:14;91644.66;;;5.32;79.37
52249;BME280;38541;48.130;8.378;2023-03-26T08:49:08;91627.03;;;5.81;77.35
52249;BME280;38541;48.130;8.378;2023-03-26T08:54:50;91593.38;;;5.95;77.44
52249;BME280;38541;48.130;8.378;2023-03-26T09:00:11;91583.72;;;6.26;77.25
52249;BME280;38541;48.130;8.378;2023-03-26T09:06:01;91584.91;;;6.70;77.54
52249;BME280;38541;48.130;8.378;2023-03-26T09:16:54;91624.84;;;6.76;74.94
52249;BME280;38541;48.130;8.378;2023-03-26T09:22:23;91596.88;;;6.82;74.32
52249;BME280;38541;48.130;8.378;2023-03-26T09:33:45;91594.91;;;7.19;73.11
52249;BME280;38541;48.130;8.378;2023-03-26T09:36:40;91636.72;;;7.08;68.99
52249;BME280;38541;48.130;8.378;2023-03-26T09:42:04;91588.72;;;7.49;71.25
52249;BME280;38541;48.130;8.378;2023-03-26T09:44:49;91598.56;;;7.97;71.18
52249;BME280;38541;48.130;8.378;2023-03-26T09:53:12;91608.31;;;8.21;69.16
52249;BME280;38541;48.130;8.378;2023-03-26T09:58:52;91584.13;;;8.05;65.26
52249;BME280;38541;48.130;8.378;2023-03-26T10:01:43;91594.44;;;7.91;66.73
52249;BME280;38541;48.130;8.378;2023-03-26T10:04:33;91572.38;;;8.03;67.30
52249;BME280;38541;48.130;8.378;2023-03-26T10:10:12;91580.38;;;8.17;66.42
52249;BME280;38541;48.130;8.378;2023-03-26T10:12:54;91608.16;;;8.07;63.92
52249;BME280;38541;48.130;8.378;2023-03-26T10:21:40;91578.56;;;8.41;63.62
52249;BME280;38541;48.130;8.378;2023-03-26T10:32:32;91589.97;;;9.24;59.82
52249;BME280;38541;48.130;8.378;2023-03-26T10:35:38;91580.34;;;9.77;59.59
52249;BME280;38541;48.130;8.378;2023-03-26T10:46:26;91602.41;;;9.56;53.10
52249;BME280;38541;48.130;8.378;2023-03-26T10:49:19;91581.81;;;9.25;54.03
52249;BME280;38541;48.130;8.378;2023-03-26T10:51:58;91583.69;;;9.63;55.01
52249;BME280;38541;48.130;8.378;2023-03-26T10:56:56;91595.44;;;9.85;54.29
52249;BME280;38541;48.130;8.378;2023-03-26T10:59:25;91630.66;;;9.98;53.04
52249;BME280;38541;48.130;8.378;2023-03-26T11:02:37;91625.09;;;10.19;52.98
52249;BME280;38541;48.130;8.378;2023-03-26T11:08:09;91619.56;;;9.68;55.91
52249;BME280;38541;48.130;8.378;2023-03-26T11:11:04;91605.38;;;9.69;54.72
52249;BME280;38541;48.130;8.378;2023-03-26T11:13:40;91605.66;;;9.67;54.34
52249;BME280;38541;48.130;8.378;2023-03-26T11:16:15;91599.81;;;9.90;57.62
52249;BME280;38541;48.130;8.378;2023-03-26T11:21:25;91616.81;;;10.11;56.39
52249;BME280;38541;48.130;8.378;2023-03-26T11:27:17;91609.19;;;9.77;55.43
52249;BME280;38541;48.130;8.378;2023-03-26T11:30:17;91607.06;;;9.40;55.01
52249;BME280;38541;48.130;8.378;2023-03-26T11:32:50;91589.91;;;9.87;56.53
52249;BME280;38541;48.130;8.378;2023-03-26T11:35:26;91609.81;;;10.21;54.21
52249;BME280;38541;48.130;8.378;2023-03-26T11:40:49;91618.84;;;10.34;53.81
52249;BME280;38541;48.130;8.378;2023-03-26T11:43:35;91607.50;;;10.19;54.50
52249;BME280;38541;48.130;8.378;2023-03-26T11:46:06;91597.56;;;10.49;54.33
52249;BME280;38541;48.130;8.378;2023-03-26T11:48:44;91599.88;;;10.84;55.12
52249;BME280;38541;48.130;8.378;2023-03-26T11:51:17;91595.09;;;11.00;52.81
52249;BME280;38541;48.130;8.378;2023-03-26T11:53:48;91607.47;;;10.99;51.43
52249;BME280;38541;48.130;8.378;2023-03-26T11:56:28;91582.97;;;10.43;52.13
52249;BME280;38541;48.130;8.378;2023-03-26T11:59:18;91586.31;;;10.49;51.76
52249;BME280;38541;48.130;8.378;2023-03-26T12:04:39;91602.66;;;10.60;51.22
52249;BME280;38541;48.130;8.378;2023-03-26T12:07:22;91579.34;;;10.72;49.98
52249;BME280;38541;48.130;8.378;2023-03-26T12:09:58;91603.34;;;10.79;48.89
52249;BME280;38541;48.130;8.378;2023-03-26T12:12:46;91599.06;;;10.83;47.89
52249;BME280;38541;48.130;8.378;2023-03-26T12:15:14;91591.56;;;10.49;49.58
52249;BME280;38541;48.130;8.378;2023-03-26T12:17:41;91605.28;;;10.26;49.03
52249;BME280;38541;48.130;8.378;2023-03-26T12:22:52;91601.59;;;10.27;49.89
52249;BME280;38541;48.130;8.378;2023-03-26T12:30:23;91623.84;;;10.49;50.09
52249;BME280;38541;48.130;8.378;2023-03-26T12:32:54;91666.94;;;10.29;48.44
52249;BME280;38541;48.130;8.378;2023-03-26T12:35:24;91632.06;;;9.52;49.95
52249;BME280;38541;48.130;8.378;2023-03-26T12:41:15;91616.13;;;9.05;52.63
52249;BME280;38541;48.130;8.378;2023-03-26T12:44:25;91605.63;;;9.10;52.42
52249;BME280;38541;48.130;8.378;2023-03-26T12:47:20;91656.53;;;9.66;52.73
52249;BME280;38541;48.130;8.378;2023-03-26T12:50:12;91614.00;;;9.89;53.75
52249;BME280;38541;48.130;8.378;2023-03-26T12:52:56;91582.56;;;10.03;52.32
52249;BME280;38541;48.130;8.378;2023-03-26T12:56:00;91564.66;;;10.38;53.65
52249;BME280;38541;48.130;8.378;2023-03-26T13:01:42;91565.03;;;10.78;49.20
52249;BME280;38541;48.130;8.378;2023-03-26T13:04:30;91568.66;;;10.35;51.97
52249;BME280;38541;48.130;8.378;2023-03-26T13:09:46;91550.41;;;10.11;50.15
52249;BME280;38541;48.130;8.378;2023-03-26T13:15:23;91567.88;;;9.30;51.80
52249;BME280;38541;48.130;8.378;2023-03-26T13:18:17;91549.16;;;8.98;51.89
52249;BME280;38541;48.130;8.378;2023-03-26T13:21:00;91534.59;;;10.16;51.00
52249;BME280;38541;48.130;8.378;2023-03-26T13:23:45;91539.94;;;9.78;50.03
52249;BME280;38541;48.130;8.378;2023-03-26T13:26:40;91553.34;;;9.19;53.51
52249;BME280;38541;48.130;8.378;2023-03-26T13:32:33;91533.97;;;9.20;54.56
52249;BME280;38541;48.130;8.378;2023-03-26T13:35:11;91531.31;;;9.58;54.23
52249;BME280;38541;48.130;8.378;2023-03-26T13:37:50;91533.09;;;9.24;53.47
52249;BME280;38541;48.130;8.378;2023-03-26T13:48:04;91528.47;;;8.78;57.42
52249;BME280;38541;48.130;8.378;2023-03-26T13:50:38;91509.34;;;9.87;55.65
52249;BME280;38541;48.130;8.378;2023-03-26T13:53:14;91505.56;;;11.33;50.43
52249;BME280;38541;48.130;8.378;2023-03-26T13:55:47;91499.66;;;14.44;44.38
52249;BME280;38541;48.130;8.378;2023-03-26T13:58:30;91519.75;;;15.14;40.61
52249;BME280;38541;48.130;8.378;2023-03-26T14:01:22;91496.16;;;12.81;45.63
52249;BME280;38541;48.130;8.378;2023-03-26T14:06:48;91485.22;;;14.50;42.21
52249;BME280;38541;48.130;8.378;2023-03-26T14:09:30;91468.28;;;13.07;45.53
52249;BME280;38541;48.130;8.378;2023-03-26T14:12:20;91474.22;;;12.14;47.44
52249;BME280;38541;48.130;8.378;2023-03-26T14:15:01;91476.28;;;10.47;51.49
52249;BME280;38541;48.130;8.378;2023-03-26T14:17:40;91469.84;;;9.97;51.99
52249;BME280;38541;48.130;8.378;2023-03-26T14:23:20;91478.22;;;9.14;55.19
52249;BME280;38541;48.130;8.378;2023-03-26T14:31:35;91544.50;;;8.17;60.20
52249;BME280;38541;48.130;8.378;2023-03-26T14:37:39;91607.31;;;6.82;70.62
52249;BME280;38541;48.130;8.378;2023-03-26T14:40:28;91600.91;;;6.48;70.33
52249;BME280;38541;48.130;8.378;2023-03-26T14:43:15;91594.97;;;6.27;69.98
52249;BME280;38541;48.130;8.378;2023-03-26T14:45:59;91580.34;;;6.00;70.68
52249;BME280;38541;48.130;8.378;2023-03-26T14:51:49;91570.19;;;5.47;72.54
52249;BME280;38541;48.130;8.378;2023-03-26T14:54:26;91562.38;;;5.72;71.85
52249;BME280;38541;48.130;8.378;2023-03-26T15:11:31;91529.38;;;7.10;68.15
52249;BME280;38541;48.130;8.378;2023-03-26T15:17:28;91534.81;;;7.59;67.97
52249;BME280;38541;48.130;8.378;2023-03-26T15:37:09;91536.75;;;8.36;61.65
52249;BME280;38541;48.130;8.378;2023-03-26T15:42:30;91551.91;;;7.80;62.81
52249;BME280;38541;48.130;8.378;2023-03-26T15:48:02;91551.53;;;8.22;63.20
52249;BME280;38541;48.130;8.378;2023-03-26T15:50:52;91555.59;;;8.09;65.25
52249;BME280;38541;48.130;8.378;2023-03-26T15:59:02;91550.66;;;8.32;60.72
52249;BME280;38541;48.130;8.378;2023-03-26T16:04:23;91540.94;;;8.08;64.12
52249;BME280;38541;48.130;8.378;2023-03-26T16:06:58;91551.13;;;7.80;62.38
52249;BME280;38541;48.130;8.378;2023-03-26T16:09:52;91556.59;;;7.83;63.79
52249;BME280;38541;48.130;8.378;2023-03-26T16:12:33;91560.13;;;7.23;64.05
52249;BME280;38541;48.130;8.378;2023-03-26T16:15:23;91570.94;;;7.06;66.15
52249;BME280;38541;48.130;8.378;2023-03-26T16:29:14;91566.81;;;6.90;67.77
52249;BME280;38541;48.130;8.378;2023-03-26T16:34:28;91580.31;;;6.47;67.73
52249;BME280;38541;48.130;8.378;2023-03-26T16:37:14;91560.03;;;6.02;68.43
52249;BME280;38541;48.130;8.378;2023-03-26T16:39:51;91560.28;;;6.06;69.17
52249;BME280;38541;48.130;8.378;2023-03-26T16:42:23;91562.34;;;6.24;68.14
52249;BME280;38541;48.130;8.378;2023-03-26T16:45:12;91558.72;;;6.20;69.29
52249;BME280;38541;48.130;8.378;2023-03-26T16:53:42;91564.72;;;6.05;68.43
52249;BME280;38541;48.130;8.378;2023-03-26T16:56:32;91558.72;;;5.99;68.84
52249;BME280;38541;48.130;8.378;2023-03-26T16:59:25;91562.91;;;5.85;69.16
52249;BME280;38541;48.130;8.378;2023-03-26T17:02:10;91556.63;;;5.86;69.34
52249;BME280;38541;48.130;8.378;2023-03-26T17:04:45;91555.84;;;6.06;69.60
52249;BME280;38541;48.130;8.378;2023-03-26T17:07:40;91561.31;;;5.94;68.90
52249;BME280;38541;48.130;8.378;2023-03-26T17:10:21;91566.81;;;5.93;68.82
52249;BME280;38541;48.130;8.378;2023-03-26T17:13:05;91568.63;;;5.87;68.45
52249;BME280;38541;48.130;8.378;2023-03-26T17:15:41;91575.41;;;5.98;68.95
52249;BME280;38541;48.130;8.378;2023-03-26T17:18:26;91576.97;;;6.10;69.23
52249;BME280;38541;48.130;8.378;2023-03-26T17:30:25;91604.03;;;5.57;68.71
52249;BME280;38541;48.130;8.378;2023-03-26T17:35:38;91600.94;;;5.60;69.63
52249;BME280;38541;48.130;8.378;2023-03-26T17:41:02;91591.03;;;5.47;69.64
52249;BME280;38541;48.130;8.378;2023-03-26T17:43:42;91599.31;;;5.28;69.28
52249;BME280;38541;48.130;8.378;2023-03-26T17:54:43;91620.34;;;5.06;71.76
52249;BME280;38541;48.130;8.378;2023-03-26T17:57:38;91639.81;;;4.88;72.74
52249;BME280;38541;48.130;8.378;2023-03-26T18:00:14;91637.16;;;4.77;74.27
52249;BME280;38541;48.130;8.378;2023-03-26T18:02:46;91633.38;;;4.47;74.17
52249;BME280;38541;48.130;8.378;2023-03-26T18:05:16;91644.19;;;4.28;74.77
52249;BME280;38541;48.130;8.378;2023-03-26T18:08:10;91673.72;;;4.12;74.86
52249;BME280;38541;48.130;8.378;2023-03-26T18:14:17;91628.19;;;3.71;74.75
52249;BME280;38541;48.130;8.378;2023-03-26T18:16:52;91627.69;;;3.75;75.39
52249;BME280;38541;48.130;8.378;2023-03-26T18:19:20;91614.97;;;3.78;75.10
52249;BME280;38541;48.130;8.378;2023-03-26T18:21:50;91613.25;;;3.89;74.99
52249;BME280;38541;48.130;8.378;2023-03-26T18:24:38;91613.66;;;3.76;75.34
52249;BME280;38541;48.130;8.378;2023-03-26T18:27:14;91616.84;;;3.83;75.28
52249;BME280;38541;48.130;8.378;2023-03-26T18:29:44;91609.63;;;3.90;75.85
52249;BME280;38541;48.130;8.378;2023-03-26T18:34:45;91612.25;;;3.95;76.07
52249;BME280;38541;48.130;8.378;2023-03-26T18:37:20;91609.66;;;3.95;75.26
52249;BME280;38541;48.130;8.378;2023-03-26T18:42:22;91608.59;;;3.91;76.17
52249;BME280;38541;48.130;8.378;2023-03-26T18:44:51;91611.75;;;3.98;76.30
52249;BME280;38541;48.130;8.378;2023-03-26T18:47:22;91620.09;;;4.06;75.75
52249;BME280;38541;48.130;8.378;2023-03-26T18:49:54;91616.78;;;4.16;76.44